createdAt,value
2023-02-01T00:01:12.929Z,16.13
2023-02-01T00:03:39.742Z,15.97
2023-02-01T00:06:09.143Z,19.13
2023-02-01T00:08:36.156Z,15.00
2023-02-01T00:11:10.139Z,13.97
2023-02-01T00:13:40.694Z,13.27
2023-02-01T00:16:15.489Z,16.03
2023-02-01T00:18:45.035Z,15.60
2023-02-01T00:21:12.405Z,16.33
2023-02-01T00:23:39.935Z,15.00
2023-02-01T00:26:07.545Z,10.90
2023-02-01T00:28:34.442Z,12.53
2023-02-01T00:31:02.854Z,12.87
2023-02-01T00:33:32.255Z,13.27
2023-02-01T00:36:05.163Z,13.03
2023-02-01T00:38:32.169Z,8.07
2023-02-01T00:41:08.255Z,11.13
2023-02-01T00:43:39.808Z,9.53
2023-02-01T00:46:08.912Z,9.53
2023-02-01T00:48:38.763Z,9.07
2023-02-01T00:51:09.544Z,9.33
2023-02-01T00:53:36.499Z,8.13
2023-02-01T00:56:03.489Z,9.80
2023-02-01T00:58:32.999Z,9.90
2023-02-01T01:01:06.877Z,10.63
2023-02-01T01:03:34.640Z,9.03
2023-02-01T01:06:02.681Z,8.20
2023-02-01T01:08:29.477Z,7.77
2023-02-01T01:10:58.653Z,5.07
2023-02-01T01:13:25.519Z,7.00
2023-02-01T01:15:54.778Z,5.50
2023-02-01T01:18:21.732Z,5.93
2023-02-01T01:20:51.361Z,10.00
2023-02-01T01:23:22.732Z,5.33
2023-02-01T01:25:49.535Z,6.87
2023-02-01T01:28:18.769Z,6.40
2023-02-01T01:30:45.884Z,4.60
2023-02-01T01:33:12.719Z,5.13
2023-02-01T01:35:39.563Z,6.03
2023-02-01T01:38:06.403Z,5.57
2023-02-01T01:40:35.746Z,8.27
2023-02-01T01:43:02.677Z,6.03
2023-02-01T01:45:35.448Z,7.40
2023-02-01T01:48:26.870Z,9.17
2023-02-01T01:51:02.925Z,8.03
2023-02-01T01:53:51.141Z,7.47
2023-02-01T01:56:18.057Z,11.23
2023-02-01T01:58:44.892Z,9.53
2023-02-01T02:01:18.986Z,8.27
2023-02-01T02:03:48.751Z,11.10
2023-02-01T02:06:24.440Z,9.03
2023-02-01T02:08:53.394Z,13.10
2023-02-01T02:11:22.734Z,14.13
2023-02-01T02:13:51.286Z,13.27
2023-02-01T02:16:39.381Z,12.43
2023-02-01T02:19:24.060Z,12.17
2023-02-01T02:22:04.266Z,17.80
2023-02-01T02:24:49.126Z,13.43
2023-02-01T02:27:28.081Z,13.90
2023-02-01T02:30:25.795Z,12.93
2023-02-01T02:33:06.279Z,11.87
2023-02-01T02:35:53.233Z,16.57
2023-02-01T02:38:53.654Z,12.73
2023-02-01T02:41:39.905Z,16.53
2023-02-01T02:45:18.352Z,10.53
2023-02-01T02:48:01.067Z,14.93
2023-02-01T02:50:54.796Z,15.13
2023-02-01T02:54:08.546Z,14.03
2023-02-01T02:56:56.750Z,16.57
2023-02-01T02:59:43.321Z,14.50
2023-02-01T03:02:28.682Z,12.73
2023-02-01T03:04:57.505Z,13.30
2023-02-01T03:07:57.608Z,13.57
2023-02-01T03:10:30.072Z,18.53
2023-02-01T03:13:00.905Z,13.83
2023-02-01T03:16:06.634Z,17.23
2023-02-01T03:18:53.779Z,10.67
2023-02-01T03:21:27.157Z,15.97
2023-02-01T03:23:55.050Z,16.77
2023-02-01T03:26:25.044Z,16.03
2023-02-01T03:29:03.522Z,17.57
2023-02-01T03:31:30.402Z,17.30
2023-02-01T03:33:59.675Z,16.80
2023-02-01T03:36:39.318Z,14.00
2023-02-01T03:39:10.861Z,20.83
2023-02-01T03:41:44.835Z,20.67
2023-02-01T03:44:15.717Z,19.33
2023-02-01T03:46:50.558Z,14.60
2023-02-01T03:49:32.218Z,26.23
2023-02-01T03:51:59.991Z,14.13
2023-02-01T03:54:27.671Z,27.07
2023-02-01T03:56:58.055Z,22.57
2023-02-01T03:59:27.042Z,22.00
2023-02-01T04:01:54.052Z,13.27
2023-02-01T04:04:23.064Z,20.83
2023-02-01T04:06:50.546Z,18.87
2023-02-01T04:09:20.441Z,17.43
2023-02-01T04:11:47.238Z,18.33
2023-02-01T04:14:16.675Z,18.00
2023-02-01T04:16:45.859Z,13.90
2023-02-01T04:19:12.648Z,18.33
2023-02-01T04:21:41.883Z,19.03
2023-02-01T04:24:09.684Z,15.27
2023-02-01T04:26:36.603Z,18.40
2023-02-01T04:29:03.499Z,15.77
2023-02-01T04:31:32.513Z,17.07
2023-02-01T04:33:59.402Z,19.43
2023-02-01T04:36:26.215Z,23.20
2023-02-01T04:38:55.248Z,15.73
2023-02-01T04:41:23.845Z,18.13
2023-02-01T04:43:51.024Z,18.10
2023-02-01T04:46:18.067Z,16.67
2023-02-01T04:48:44.866Z,19.17
2023-02-01T04:51:12.320Z,18.83
2023-02-01T04:53:39.107Z,22.70
2023-02-01T04:56:06.500Z,19.17
2023-02-01T04:58:33.319Z,14.00
2023-02-01T05:01:00.301Z,18.40
2023-02-01T05:03:27.163Z,18.43
2023-02-01T05:05:54.721Z,20.00
2023-02-01T05:08:23.793Z,20.17
2023-02-01T05:10:52.750Z,21.23
2023-02-01T05:13:37.893Z,18.90
2023-02-01T05:16:05.310Z,16.50
2023-02-01T05:18:32.107Z,22.13
2023-02-01T05:21:01.108Z,15.23
2023-02-01T05:23:30.132Z,22.90
2023-02-01T05:26:04.388Z,23.50
2023-02-01T05:28:31.152Z,16.47
2023-02-01T05:31:00.388Z,18.43
2023-02-01T05:33:27.234Z,16.63
2023-02-01T05:35:56.506Z,18.47
2023-02-01T05:38:23.291Z,17.40
2023-02-01T05:40:52.579Z,27.47
2023-02-01T05:43:19.377Z,23.20
2023-02-01T05:45:46.139Z,16.23
2023-02-01T05:48:15.055Z,27.23
2023-02-01T05:50:44.409Z,17.03
2023-02-01T05:53:11.257Z,23.07
2023-02-01T05:55:40.347Z,17.53
2023-02-01T05:58:07.180Z,18.10
2023-02-01T06:00:33.976Z,14.43
2023-02-01T06:03:00.834Z,16.97
2023-02-01T06:05:27.685Z,22.63
2023-02-01T06:07:54.534Z,21.73
2023-02-01T06:10:23.774Z,26.97
2023-02-01T06:12:50.871Z,23.43
2023-02-01T06:15:20.257Z,22.10
2023-02-01T06:17:50.140Z,24.53
2023-02-01T06:20:17.497Z,16.33
2023-02-01T06:22:46.813Z,25.47
2023-02-01T06:25:17.779Z,20.20
2023-02-01T06:27:46.048Z,16.30
2023-02-01T06:30:15.550Z,18.80
2023-02-01T06:32:44.869Z,15.40
2023-02-01T06:35:17.227Z,23.53
2023-02-01T06:37:44.356Z,18.73
2023-02-01T06:40:11.746Z,21.17
2023-02-01T06:42:38.691Z,20.67
2023-02-01T06:45:07.701Z,18.37
2023-02-01T06:47:36.812Z,20.37
2023-02-01T06:50:03.883Z,24.30
2023-02-01T06:52:30.707Z,26.80
2023-02-01T06:55:00.185Z,24.23
2023-02-01T06:57:31.515Z,15.77
2023-02-01T06:59:59.515Z,16.60
2023-02-01T07:02:28.899Z,23.57
2023-02-01T07:04:55.667Z,17.00
2023-02-01T07:07:24.675Z,18.27
2023-02-01T07:09:51.439Z,21.53
2023-02-01T07:12:19.469Z,23.20
2023-02-01T07:14:46.276Z,18.10
2023-02-01T07:17:13.131Z,16.77
2023-02-01T07:19:39.961Z,18.17
2023-02-01T07:22:06.735Z,17.40
2023-02-01T07:24:35.170Z,21.87
2023-02-01T07:27:04.202Z,20.63
2023-02-01T07:29:35.698Z,14.13
2023-02-01T07:32:05.001Z,18.23
2023-02-01T07:34:34.938Z,22.77
2023-02-01T07:37:01.716Z,18.67
2023-02-01T07:39:29.398Z,22.73
2023-02-01T07:41:58.468Z,25.00
2023-02-01T07:44:25.297Z,16.97
2023-02-01T07:46:54.579Z,25.00
2023-02-01T07:49:21.456Z,23.93
2023-02-01T07:51:50.403Z,19.23
2023-02-01T07:54:17.378Z,14.27
2023-02-01T07:56:46.267Z,26.30
2023-02-01T07:59:16.178Z,23.37
2023-02-01T08:01:43.178Z,18.90
2023-02-01T08:04:12.003Z,25.47
2023-02-01T08:06:38.906Z,20.57
2023-02-01T08:09:08.720Z,24.80
2023-02-01T08:11:40.238Z,22.50
2023-02-01T08:14:07.634Z,22.47
2023-02-01T08:16:36.222Z,20.83
2023-02-01T08:19:05.248Z,22.03
2023-02-01T08:21:39.699Z,21.67
2023-02-01T08:24:12.069Z,18.47
2023-02-01T08:26:38.925Z,21.53
2023-02-01T08:29:08.290Z,19.07
2023-02-01T08:31:35.336Z,20.97
2023-02-01T08:34:02.607Z,21.80
2023-02-01T08:36:30.368Z,25.53
2023-02-01T08:38:57.156Z,19.77
2023-02-01T08:41:25.725Z,22.27
2023-02-01T08:43:55.366Z,21.33
2023-02-01T08:46:25.080Z,15.00
2023-02-01T08:48:52.257Z,17.67
2023-02-01T08:51:20.236Z,25.20
2023-02-01T08:53:47.123Z,24.43
2023-02-01T08:56:17.278Z,16.13
2023-02-01T08:58:44.281Z,19.60
2023-02-01T09:01:16.255Z,26.67
2023-02-01T09:03:45.491Z,18.47
2023-02-01T09:06:15.495Z,19.80
2023-02-01T09:08:42.599Z,21.73
2023-02-01T09:11:14.216Z,19.67
2023-02-01T09:13:41.107Z,32.80
2023-02-01T09:16:08.031Z,13.83
2023-02-01T09:18:45.993Z,19.07
2023-02-01T09:21:23.380Z,20.57
2023-02-01T09:23:52.190Z,23.83
2023-02-01T09:26:26.544Z,21.20
2023-02-01T09:29:01.144Z,16.93
2023-02-01T09:31:28.339Z,25.50
2023-02-01T09:33:57.796Z,18.10
2023-02-01T09:36:31.119Z,18.80
2023-02-01T09:38:58.598Z,22.77
2023-02-01T09:41:55.108Z,22.20
2023-02-01T09:44:44.674Z,20.57
2023-02-01T09:47:22.703Z,18.83
2023-02-01T09:50:04.574Z,19.67
2023-02-01T09:52:53.064Z,20.80
2023-02-01T09:55:22.158Z,22.10
2023-02-01T09:58:03.840Z,21.50
2023-02-01T10:00:34.938Z,19.00
2023-02-01T10:03:01.738Z,22.47
2023-02-01T10:05:59.412Z,15.37
2023-02-01T10:08:58.162Z,21.80
2023-02-01T10:11:59.152Z,23.10
2023-02-01T10:14:28.980Z,18.37
2023-02-01T10:17:24.391Z,14.50
2023-02-01T10:19:51.146Z,15.20
2023-02-01T10:23:08.762Z,14.20
2023-02-01T10:25:57.932Z,18.00
2023-02-01T10:28:27.953Z,15.50
2023-02-01T10:30:57.884Z,16.50
2023-02-01T10:33:36.105Z,20.30
2023-02-01T10:36:10.939Z,17.77
2023-02-01T10:38:37.732Z,16.03
2023-02-01T10:41:21.239Z,17.67
2023-02-01T10:43:53.074Z,17.37
2023-02-01T10:46:27.263Z,18.23
2023-02-01T10:48:56.610Z,29.37
2023-02-01T10:51:45.138Z,28.43
2023-02-01T10:54:17.450Z,25.47
2023-02-01T10:56:47.370Z,19.50
2023-02-01T10:59:21.863Z,20.63
2023-02-01T11:01:49.773Z,24.30
2023-02-01T11:04:21.267Z,14.43
2023-02-01T11:06:50.148Z,19.93
2023-02-01T11:09:22.104Z,19.53
2023-02-01T11:11:48.995Z,23.57
2023-02-01T11:14:35.378Z,22.80
2023-02-01T11:17:11.824Z,22.60
2023-02-01T11:20:01.350Z,22.90
2023-02-01T11:22:29.518Z,23.57
2023-02-01T11:25:02.950Z,22.10
2023-02-01T11:27:29.738Z,20.23
2023-02-01T11:30:00.519Z,21.67
2023-02-01T11:32:27.419Z,22.90
2023-02-01T11:35:08.306Z,17.27
2023-02-01T11:37:38.390Z,17.07
2023-02-01T11:40:26.586Z,19.13
2023-02-01T11:43:09.618Z,20.53
2023-02-01T11:45:38.470Z,14.83
2023-02-01T11:48:26.334Z,20.77
2023-02-01T11:50:56.752Z,19.77
2023-02-01T11:53:26.313Z,20.77
2023-02-01T11:56:01.588Z,20.13
2023-02-01T11:58:45.103Z,25.20
2023-02-01T12:01:18.093Z,20.07
2023-02-01T12:04:17.122Z,22.77
2023-02-01T12:06:57.784Z,18.63
2023-02-01T12:09:50.632Z,25.00
2023-02-01T12:12:35.382Z,23.00
2023-02-01T12:15:20.375Z,20.40
2023-02-01T12:18:20.270Z,29.73
2023-02-01T12:21:14.668Z,27.03
2023-02-01T12:24:18.981Z,25.40
2023-02-01T12:26:57.633Z,18.17
2023-02-01T12:29:48.811Z,20.60
2023-02-01T12:32:37.143Z,23.37
2023-02-01T12:35:10.134Z,30.20
2023-02-01T12:37:58.542Z,18.00
2023-02-01T12:40:53.182Z,22.93
2023-02-01T12:43:36.236Z,30.60
2023-02-01T12:46:14.495Z,27.17
2023-02-01T12:49:14.165Z,23.73
2023-02-01T12:51:42.659Z,21.03
2023-02-01T12:54:28.198Z,26.50
2023-02-01T12:56:56.742Z,24.47
2023-02-01T12:59:45.575Z,32.43
2023-02-01T13:02:43.209Z,29.00
2023-02-01T13:05:14.633Z,23.63
2023-02-01T13:07:51.421Z,26.57
2023-02-01T13:10:33.747Z,24.43
2023-02-01T13:13:03.553Z,24.17
2023-02-01T13:15:37.610Z,28.03
2023-02-01T13:18:08.404Z,23.93
2023-02-01T13:20:36.099Z,29.30
2023-02-01T13:23:11.493Z,27.33
2023-02-01T13:25:46.507Z,22.30
2023-02-01T13:28:34.803Z,24.47
2023-02-01T13:31:40.593Z,22.33
2023-02-01T13:34:26.902Z,26.53
2023-02-01T13:37:15.895Z,27.70
2023-02-01T13:40:07.264Z,24.70
2023-02-01T13:42:44.170Z,25.43
2023-02-01T13:45:22.873Z,20.00
2023-02-01T13:47:53.879Z,18.80
2023-02-01T13:50:35.053Z,17.47
2023-02-01T13:53:03.756Z,24.27
2023-02-01T13:55:35.541Z,19.73
2023-02-01T13:58:15.533Z,17.87
2023-02-01T14:00:45.058Z,22.60
2023-02-01T14:03:17.024Z,16.23
2023-02-01T14:05:49.122Z,19.27
2023-02-01T14:08:37.342Z,18.07
2023-02-01T14:11:06.719Z,18.60
2023-02-01T14:13:39.923Z,14.00
2023-02-01T14:16:07.323Z,21.57
2023-02-01T14:18:47.424Z,18.10
2023-02-01T14:21:34.858Z,17.13
2023-02-01T14:24:05.379Z,18.27
2023-02-01T14:26:35.376Z,19.27
2023-02-01T14:29:03.708Z,22.23
2023-02-01T14:31:34.827Z,16.67
2023-02-01T14:34:09.934Z,19.40
2023-02-01T14:36:54.152Z,20.30
2023-02-01T14:39:42.228Z,17.27
2023-02-01T14:42:40.398Z,19.93
2023-02-01T14:45:26.118Z,16.77
2023-02-01T14:47:53.639Z,12.73
2023-02-01T14:50:33.432Z,14.33
2023-02-01T14:53:12.986Z,12.27
2023-02-01T14:56:12.482Z,13.77
2023-02-01T14:58:46.384Z,18.33
2023-02-01T15:01:31.665Z,11.43
2023-02-01T15:04:19.180Z,10.57
2023-02-01T15:07:05.475Z,11.67
2023-02-01T15:09:38.817Z,13.57
2023-02-01T15:12:26.087Z,11.10
2023-02-01T15:15:12.849Z,8.67
2023-02-01T15:17:39.979Z,13.30
2023-02-01T15:20:22.263Z,13.70
2023-02-01T15:23:00.922Z,10.90
2023-02-01T15:25:32.599Z,12.50
2023-02-01T15:27:59.407Z,12.90
2023-02-01T15:30:28.324Z,10.33
2023-02-01T15:33:14.878Z,16.37
2023-02-01T15:35:48.912Z,12.50
2023-02-01T15:38:24.667Z,14.80
2023-02-01T15:41:14.954Z,13.47
2023-02-01T15:43:49.208Z,12.80
2023-02-01T15:46:23.108Z,15.67
2023-02-01T15:48:53.231Z,12.23
2023-02-01T15:51:24.489Z,15.53
2023-02-01T15:53:59.936Z,14.67
2023-02-01T15:56:29.082Z,12.60
2023-02-01T15:59:00.248Z,13.60
2023-02-01T16:01:27.181Z,10.47
2023-02-01T16:04:12.058Z,11.40
2023-02-01T16:06:45.506Z,11.63
2023-02-01T16:09:13.766Z,14.70
2023-02-01T16:12:00.782Z,10.97
2023-02-01T16:14:27.837Z,16.73
2023-02-01T16:16:59.299Z,15.70
2023-02-01T16:19:29.524Z,10.87
2023-02-01T16:21:59.981Z,17.57
2023-02-01T16:24:27.092Z,12.73
2023-02-01T16:26:56.143Z,16.47
2023-02-01T16:29:25.446Z,15.07
2023-02-01T16:31:54.869Z,17.23
2023-02-01T16:34:21.679Z,15.87
2023-02-01T16:36:52.804Z,15.63
2023-02-01T16:39:22.057Z,17.70
2023-02-01T16:41:50.997Z,16.93
2023-02-01T16:44:17.803Z,13.07
2023-02-01T16:46:49.981Z,17.27
2023-02-01T16:49:21.935Z,13.30
2023-02-01T16:51:49.815Z,15.73
2023-02-01T16:54:16.622Z,17.03
2023-02-01T16:56:45.044Z,16.13
2023-02-01T16:59:12.033Z,19.97
2023-02-01T17:01:39.865Z,20.97
2023-02-01T17:04:09.144Z,14.17
2023-02-01T17:06:37.847Z,12.50
2023-02-01T17:09:09.252Z,14.33
2023-02-01T17:11:36.065Z,17.33
2023-02-01T17:14:20.013Z,20.00
2023-02-01T17:16:48.327Z,19.83
2023-02-01T17:19:24.684Z,17.00
2023-02-01T17:21:59.687Z,17.40
2023-02-01T17:24:35.869Z,16.03
2023-02-01T17:27:09.615Z,21.43
2023-02-01T17:29:38.884Z,20.80
2023-02-01T17:32:08.394Z,19.40
2023-02-01T17:34:35.261Z,21.10
2023-02-01T17:37:09.055Z,13.87
2023-02-01T17:39:56.787Z,20.00
2023-02-01T17:42:27.734Z,17.37
2023-02-01T17:45:19.733Z,21.70
2023-02-01T17:47:48.681Z,15.93
2023-02-01T17:50:17.866Z,16.37
2023-02-01T17:52:44.655Z,18.37
2023-02-01T17:55:24.125Z,22.07
2023-02-01T17:57:51.160Z,18.90
2023-02-01T18:00:21.517Z,20.43
2023-02-01T18:02:48.355Z,20.40
2023-02-01T18:05:21.386Z,19.80
2023-02-01T18:07:48.661Z,19.57
2023-02-01T18:10:18.134Z,13.10
2023-02-01T18:12:49.703Z,13.93
2023-02-01T18:15:25.644Z,19.20
2023-02-01T18:17:52.755Z,17.73
2023-02-01T18:20:23.260Z,17.33
2023-02-01T18:22:50.150Z,19.90
2023-02-01T18:25:26.684Z,17.40
2023-02-01T18:27:54.695Z,13.83
2023-02-01T18:30:26.891Z,17.20
2023-02-01T18:32:59.310Z,14.27
2023-02-01T18:35:31.344Z,15.40
2023-02-01T18:37:58.344Z,16.03
2023-02-01T18:40:33.006Z,15.47
2023-02-01T18:43:01.093Z,18.30
2023-02-01T18:45:35.176Z,19.50
2023-02-01T18:48:02.128Z,18.83
2023-02-01T18:50:35.987Z,19.97
2023-02-01T18:53:04.528Z,17.70
2023-02-01T18:55:34.130Z,15.00
2023-02-01T18:58:01.560Z,20.23
2023-02-01T19:00:30.947Z,15.20
2023-02-01T19:02:57.751Z,16.23
2023-02-01T19:05:24.869Z,19.30
2023-02-01T19:07:51.888Z,17.50
2023-02-01T19:10:22.583Z,13.57
2023-02-01T19:12:50.622Z,17.87
2023-02-01T19:15:20.343Z,16.77
2023-02-01T19:17:50.696Z,13.43
2023-02-01T19:20:20.581Z,16.67
2023-02-01T19:22:50.291Z,13.80
2023-02-01T19:25:26.384Z,15.80
2023-02-01T19:27:53.720Z,25.63
2023-02-01T19:30:25.076Z,16.17
2023-02-01T19:32:52.090Z,20.63
2023-02-01T19:35:22.277Z,15.07
2023-02-01T19:37:51.743Z,16.37
2023-02-01T19:40:19.529Z,21.60
2023-02-01T19:42:46.812Z,21.70
2023-02-01T19:45:13.760Z,19.73
2023-02-01T19:47:40.543Z,16.80
2023-02-01T19:50:07.932Z,20.97
2023-02-01T19:52:37.310Z,19.80
2023-02-01T19:55:05.046Z,20.93
2023-02-01T19:57:36.461Z,15.67
2023-02-01T20:00:04.939Z,25.13
2023-02-01T20:02:31.161Z,16.97
2023-02-01T20:05:00.407Z,21.90
2023-02-01T20:07:29.838Z,20.37
2023-02-01T20:09:56.694Z,25.83
2023-02-01T20:12:23.491Z,20.33
2023-02-01T20:14:50.317Z,19.57
2023-02-01T20:17:17.873Z,22.07
2023-02-01T20:19:44.667Z,21.10
2023-02-01T20:22:11.554Z,18.23
2023-02-01T20:24:40.915Z,21.10
2023-02-01T20:27:10.520Z,20.27
2023-02-01T20:29:37.468Z,23.27
2023-02-01T20:32:04.309Z,25.90
2023-02-01T20:34:31.191Z,23.87
2023-02-01T20:37:05.566Z,22.90
2023-02-01T20:39:34.600Z,23.30
2023-02-01T20:42:03.535Z,15.67
2023-02-01T20:44:30.313Z,20.30
2023-02-01T20:46:59.824Z,26.17
2023-02-01T20:49:28.976Z,17.27
2023-02-01T20:51:58.236Z,19.20
2023-02-01T20:54:25.253Z,21.77
2023-02-01T20:56:52.119Z,22.23
2023-02-01T20:59:19.436Z,24.77
2023-02-01T21:01:54.637Z,23.47
2023-02-01T21:04:27.391Z,22.93
2023-02-01T21:06:57.749Z,20.83
2023-02-01T21:09:26.955Z,29.80
2023-02-01T21:11:58.481Z,17.40
2023-02-01T21:14:25.389Z,18.40
2023-02-01T21:16:52.267Z,18.13
2023-02-01T21:19:19.201Z,19.97
2023-02-01T21:21:45.979Z,28.73
2023-02-01T21:24:15.235Z,19.97
2023-02-01T21:26:42.160Z,21.87
2023-02-01T21:29:11.113Z,23.53
2023-02-01T21:31:42.715Z,24.50
2023-02-01T21:34:12.004Z,23.43
2023-02-01T21:36:41.053Z,21.77
2023-02-01T21:39:12.244Z,22.23
2023-02-01T21:41:57.590Z,27.40
2023-02-01T21:44:26.886Z,19.77
2023-02-01T21:46:55.539Z,19.13
2023-02-01T21:49:24.991Z,22.67
2023-02-01T21:51:52.198Z,21.77
2023-02-01T21:54:21.271Z,24.87
2023-02-01T21:56:48.083Z,19.93
2023-02-01T21:59:17.543Z,15.53
2023-02-01T22:01:44.421Z,21.70
2023-02-01T22:04:11.383Z,19.47
2023-02-01T22:06:41.363Z,19.53
2023-02-01T22:09:10.678Z,16.60
2023-02-01T22:11:37.492Z,21.03
2023-02-01T22:14:04.252Z,16.77
2023-02-01T22:16:33.450Z,20.57
2023-02-01T22:19:02.534Z,15.53
2023-02-01T22:21:29.373Z,15.37
2023-02-01T22:23:57.555Z,17.33
2023-02-01T22:26:24.749Z,16.57
2023-02-01T22:28:54.766Z,16.73
2023-02-01T22:31:21.957Z,18.17
2023-02-01T22:33:49.598Z,18.57
2023-02-01T22:36:19.319Z,17.33
2023-02-01T22:38:48.439Z,16.30
2023-02-01T22:41:15.230Z,17.43
2023-02-01T22:43:42.000Z,22.07
2023-02-01T22:46:14.320Z,20.10
2023-02-01T22:48:42.037Z,20.00
2023-02-01T22:51:23.223Z,14.77
2023-02-01T22:53:57.118Z,16.83
2023-02-01T22:56:38.690Z,17.33
2023-02-01T22:59:10.804Z,10.93
2023-02-01T23:01:37.634Z,11.93
2023-02-01T23:04:07.427Z,10.23
2023-02-01T23:06:36.569Z,10.10
2023-02-01T23:09:06.182Z,11.47
2023-02-01T23:11:32.987Z,11.60
2023-02-01T23:13:59.860Z,13.63
2023-02-01T23:16:26.872Z,9.23
2023-02-01T23:18:56.725Z,11.30
2023-02-01T23:21:23.773Z,11.90
2023-02-01T23:23:52.525Z,11.63
2023-02-01T23:26:19.739Z,10.77
2023-02-01T23:28:46.708Z,11.20
2023-02-01T23:31:14.249Z,15.80
2023-02-01T23:33:43.927Z,13.30
2023-02-01T23:36:11.861Z,11.17
2023-02-01T23:38:38.700Z,13.27
2023-02-01T23:41:06.316Z,17.33
2023-02-01T23:43:52.015Z,17.77
2023-02-01T23:46:19.004Z,16.73
2023-02-01T23:48:46.537Z,14.13
2023-02-01T23:51:15.461Z,17.93
2023-02-01T23:53:44.783Z,16.53
2023-02-01T23:56:43.574Z,15.60
2023-02-01T23:59:18.232Z,19.20
